createdAt,value
2017-07-11T09:25:39.721Z,73.69
2017-07-11T09:26:36.513Z,73.99
2017-07-11T09:27:36.834Z,74.95
2017-07-11T09:28:36.835Z,75.14
2017-07-11T09:29:36.516Z,73.5
2017-07-11T09:30:36.839Z,74.18
2017-07-11T09:31:36.842Z,75.14
2017-07-11T09:32:36.850Z,75.24
2017-07-11T09:33:36.847Z,75.34
2017-07-11T09:34:36.853Z,74.76
2017-07-11T09:35:36.853Z,75.53
2017-07-11T09:36:36.865Z,74.85
2017-07-11T09:37:36.550Z,74.18
2017-07-11T09:38:36.870Z,76.05
2017-07-11T09:39:36.882Z,75.47
2017-07-11T09:40:36.559Z,73.35
2017-07-11T09:41:36.885Z,73.38
2017-07-11T09:42:36.895Z,73.48
2017-07-11T09:43:36.908Z,75.7
2017-07-11T09:44:36.577Z,74.16
2017-07-11T09:45:36.905Z,74.96
2017-07-11T09:46:36.589Z,72.36
2017-07-11T09:47:36.591Z,72.49
2017-07-11T09:48:36.922Z,70.56
2017-07-11T09:49:36.929Z,69.01
2017-07-11T09:50:36.655Z,71.72
2017-07-11T09:51:36.947Z,68.98
2017-07-11T09:52:36.943Z,67.52
2017-07-11T09:53:36.645Z,68.78
2017-07-11T09:54:36.952Z,71.3
2017-07-11T09:55:36.641Z,66.27
2017-07-11T09:56:37.002Z,68.84
2017-07-11T09:57:36.977Z,73.48
2017-07-11T09:58:36.974Z,72.22
2017-07-11T09:59:36.659Z,72.32
2017-07-11T10:00:36.990Z,73.96
2017-07-11T10:01:36.990Z,67.04
2017-07-11T10:02:36.995Z,68.98
2017-07-11T10:03:36.999Z,68.2
2017-07-11T10:04:36.690Z,68.4
2017-07-11T10:05:36.691Z,67.43
2017-07-11T10:06:37.017Z,66.85
2017-07-11T10:07:37.021Z,66.01
2017-07-11T10:08:37.029Z,66.78
2017-07-11T10:09:37.034Z,64.56
2017-07-11T10:10:37.044Z,65.92
2017-07-11T10:11:37.048Z,65.92
2017-07-11T10:12:37.050Z,64.4
2017-07-11T10:13:36.737Z,64.31
2017-07-11T10:14:36.743Z,63.14
2017-07-11T10:15:36.763Z,63.5
2017-07-11T10:16:37.108Z,64.47
2017-07-11T10:17:36.760Z,62.95
2017-07-11T10:18:37.090Z,63.53
2017-07-11T10:19:36.772Z,62.95
2017-07-11T10:20:36.780Z,64.27
2017-07-11T10:21:36.787Z,65.05
2017-07-11T10:22:36.790Z,64.37
2017-07-11T10:23:37.113Z,64.37
2017-07-11T10:24:36.807Z,64.08
2017-07-11T10:25:36.807Z,65.2
2017-07-11T10:26:38.033Z,65.2
2017-07-11T10:27:37.137Z,65.5
2017-07-11T10:28:36.823Z,65.3
2017-07-11T10:29:37.178Z,66.46
2017-07-11T10:30:36.835Z,66.27
2017-07-11T10:31:36.845Z,67.33
2017-07-11T10:32:37.164Z,67.52
2017-07-11T10:33:37.178Z,66.75
2017-07-11T10:34:37.175Z,65.78
2017-07-11T10:35:37.180Z,65.5
2017-07-11T10:36:36.869Z,65.3
2017-07-11T10:37:37.193Z,64.92
2017-07-11T10:38:37.214Z,65.34
2017-07-11T10:39:37.202Z,65.34
2017-07-11T10:40:37.213Z,64.08
2017-07-11T10:41:39.265Z,65.24
2017-07-11T10:42:37.222Z,66.17
2017-07-11T10:43:37.222Z,65.3
2017-07-11T10:44:37.231Z,65.3
2017-07-11T10:45:37.233Z,65.98
2017-07-11T10:46:37.242Z,67.82
2017-07-11T10:47:37.319Z,68.33
2017-07-11T10:48:37.254Z,67.27
2017-07-11T10:49:37.260Z,66.3
2017-07-11T10:50:36.942Z,65.14
2017-07-11T10:51:37.268Z,65.43
2017-07-11T10:52:37.280Z,63.98
2017-07-11T10:53:36.958Z,63.14
2017-07-11T10:54:37.282Z,62.76
2017-07-11T10:55:37.290Z,62.5
2017-07-11T10:56:36.974Z,62.21
2017-07-11T10:57:36.980Z,61.05
2017-07-11T10:58:37.304Z,61.33
2017-07-11T10:59:37.315Z,62.5
2017-07-11T11:00:37.322Z,62.59
2017-07-11T11:01:37.324Z,62.59
2017-07-11T11:02:37.335Z,62.3
2017-07-11T11:03:37.014Z,62.27
2017-07-11T11:04:37.341Z,61.24
2017-07-11T11:05:37.348Z,61.02
2017-07-11T11:06:37.357Z,61.3
2017-07-11T11:07:37.358Z,62.05
2017-07-11T11:08:37.366Z,62.15
2017-07-11T11:09:37.047Z,62.15
2017-07-11T11:10:37.053Z,61.66
2017-07-11T11:11:37.383Z,61.57
2017-07-11T11:12:37.071Z,61.76
2017-07-11T11:13:37.072Z,61.57
2017-07-11T11:14:37.077Z,60.99
2017-07-11T11:15:37.404Z,60.82
2017-07-11T11:16:37.088Z,60.72
2017-07-11T11:17:37.412Z,60.63
2017-07-11T11:18:37.433Z,61.11
2017-07-11T11:19:37.424Z,60.92
2017-07-11T11:20:37.430Z,59.5
2017-07-11T11:21:37.434Z,58.63
2017-07-11T11:22:37.133Z,57.69
2017-07-11T11:23:37.444Z,57.79
2017-07-11T11:24:37.451Z,57.69
2017-07-11T11:25:37.138Z,57.59
2017-07-11T11:26:37.464Z,57.59
2017-07-11T11:27:37.468Z,58.27
2017-07-11T11:28:37.215Z,57.2
2017-07-11T11:29:37.483Z,57.01
2017-07-11T11:30:37.489Z,57.56
2017-07-11T11:31:37.169Z,57.18
2017-07-11T11:32:37.498Z,57.79
2017-07-11T11:33:37.502Z,56.92
2017-07-11T11:34:37.512Z,57.59
2017-07-11T11:35:37.515Z,58.44
2017-07-11T11:36:37.200Z,58.92
2017-07-11T11:37:37.527Z,58.47
2017-07-11T11:38:37.534Z,57.59
2017-07-11T11:39:37.545Z,57.2
2017-07-11T11:40:37.224Z,56.94
2017-07-11T11:41:37.230Z,56.16
2017-07-11T11:42:38.460Z,56.07
2017-07-11T11:43:37.243Z,56.85
2017-07-11T11:45:03.427Z,55.04
2017-07-11T11:45:37.256Z,55.62
2017-07-11T11:46:37.597Z,55.52
2017-07-11T11:47:37.591Z,55.13
2017-07-11T11:48:37.594Z,55.52
2017-07-11T11:49:37.606Z,56.49
2017-07-11T11:50:37.287Z,56.07
2017-07-11T11:51:37.622Z,56.07
2017-07-11T11:52:37.617Z,56.75
2017-07-11T11:53:37.626Z,57.14
2017-07-11T11:54:37.630Z,56.94
2017-07-11T11:55:37.638Z,56.75
2017-07-11T11:56:37.322Z,57.23
2017-07-11T11:57:41.817Z,56.07
2017-07-11T11:58:37.336Z,55.81
2017-07-11T11:59:37.667Z,55
2017-07-11T12:00:37.668Z,55.81
2017-07-11T12:01:37.676Z,56.1
2017-07-11T12:02:37.363Z,55.71
2017-07-11T12:03:37.365Z,54.09
2017-07-11T12:04:37.692Z,54.38
2017-07-11T12:05:37.701Z,54.48
2017-07-11T12:06:37.384Z,55.16
2017-07-11T12:07:37.710Z,55.44
2017-07-11T12:38:26.538Z,53.09
2017-07-11T12:39:26.489Z,52.71
2017-07-11T12:40:26.814Z,51.57
2017-07-11T12:41:26.819Z,52.22
2017-07-11T12:42:26.818Z,52.71
2017-07-11T12:43:26.522Z,53.87
2017-07-11T12:44:26.837Z,54.55
2017-07-11T12:45:26.832Z,54.35
2017-07-11T12:46:26.839Z,53.77
2017-07-11T12:47:26.524Z,53.97
2017-07-11T12:48:26.850Z,51.45
2017-07-11T12:49:26.850Z,51.54
2017-07-11T12:50:26.859Z,52.71
2017-07-11T12:51:26.558Z,53.94
2017-07-11T12:52:26.872Z,53.85
2017-07-11T12:53:26.604Z,53.85
2017-07-11T12:54:26.882Z,52.68
2017-07-11T12:55:26.568Z,51.52
2017-07-11T12:56:26.896Z,51.04
2017-07-11T12:57:26.899Z,51.54
2017-07-11T12:58:26.583Z,51.62
2017-07-11T12:59:26.923Z,51.84
2017-07-11T13:00:26.596Z,51.9
2017-07-11T13:01:26.924Z,51.42
2017-07-11T13:02:26.927Z,52.22
2017-07-11T13:03:26.611Z,52.39
2017-07-11T13:04:26.618Z,52.2
2017-07-11T13:05:26.945Z,52.78
2017-07-11T13:06:26.950Z,52.49
2017-07-11T13:07:26.637Z,52.78
2017-07-11T13:08:28.763Z,52.78
2017-07-11T13:09:26.979Z,53.85
2017-07-11T13:10:26.652Z,53.45
2017-07-11T13:11:26.663Z,53.65
2017-07-11T13:12:26.668Z,54.03
2017-07-11T13:13:26.999Z,53.65
2017-07-11T13:14:26.997Z,53.85
2017-07-11T13:15:27.007Z,53.85
2017-07-11T13:16:26.687Z,53.65
2017-07-11T13:17:26.694Z,53.65
2017-07-11T13:18:27.020Z,52.8
2017-07-11T13:19:27.027Z,52.9
2017-07-11T13:20:27.055Z,52.71
2017-07-11T13:21:27.038Z,52.71
2017-07-11T13:22:27.041Z,52.32
2017-07-11T13:23:27.047Z,51.74
2017-07-11T13:24:27.055Z,51.25
2017-07-11T13:25:27.061Z,51.06
2017-07-11T13:26:27.067Z,50.7
2017-07-11T13:27:27.072Z,51.09
2017-07-11T13:28:27.082Z,50.41
2017-07-11T13:29:27.086Z,48.18
2017-07-11T13:30:27.095Z,48.27
2017-07-11T13:31:26.779Z,48.18
2017-07-11T13:32:26.789Z,48.18
2017-07-11T13:33:26.788Z,47.6
2017-07-11T13:34:27.130Z,47.4
2017-07-11T13:35:26.809Z,47.89
2017-07-11T13:36:27.130Z,47.6
2017-07-11T13:37:27.139Z,47.96
2017-07-11T13:38:26.830Z,49.22
2017-07-11T13:39:27.151Z,49.61
2017-07-11T13:40:27.151Z,49.61
2017-07-11T13:41:26.850Z,49.8
2017-07-11T13:42:27.187Z,50.67
2017-07-11T13:43:27.193Z,50.96
2017-07-11T13:44:27.189Z,49.7
2017-07-11T13:45:27.182Z,48.85
2017-07-11T13:46:26.883Z,49.73
2017-07-11T13:47:26.879Z,49.34
2017-07-11T13:48:27.205Z,49.54
2017-07-11T13:49:26.890Z,49.54
2017-07-11T13:50:27.212Z,49.24
2017-07-11T13:51:26.905Z,48.66
2017-07-11T13:52:26.916Z,49.63
2017-07-11T13:53:27.239Z,48.76
2017-07-11T13:54:28.144Z,47.6
2017-07-11T13:55:26.928Z,48.18
2017-07-11T13:56:27.261Z,48.85
2017-07-11T13:57:27.270Z,49.05
2017-07-11T13:58:26.949Z,49.51
2017-07-11T13:59:27.273Z,49.15
2017-07-11T14:00:27.267Z,48.83
2017-07-11T14:01:27.274Z,48.93
2017-07-11T14:02:27.288Z,48.44
2017-07-11T14:03:27.287Z,49.12
2017-07-11T14:04:27.300Z,49.12
2017-07-11T14:05:27.298Z,49.51
2017-07-11T14:06:26.985Z,48.83
2017-07-11T14:07:27.309Z,49.32
2017-07-11T14:08:26.995Z,49.12
2017-07-11T14:09:28.338Z,48.44
2017-07-11T14:10:27.006Z,48.54
2017-07-11T14:11:27.013Z,48.08
2017-07-11T14:12:27.019Z,48.47
2017-07-11T14:13:27.347Z,48.27
2017-07-11T14:14:27.352Z,47.6
2017-07-11T14:15:27.379Z,47.69
2017-07-11T14:16:27.395Z,48.18
2017-07-11T14:17:27.373Z,47.5
2017-07-11T14:18:27.056Z,47.02
2017-07-11T14:19:27.059Z,47.11
2017-07-11T14:20:27.066Z,47.3
2017-07-11T14:21:27.141Z,46.92
2017-07-11T14:22:27.075Z,48.15
2017-07-11T14:23:27.082Z,47.5
2017-07-11T14:24:27.410Z,47.19
2017-07-11T14:25:27.095Z,47.3
2017-07-11T14:26:27.446Z,47.09
2017-07-11T14:27:27.426Z,47.57
2017-07-11T14:28:27.113Z,47.69
2017-07-11T14:29:27.442Z,47.3
2017-07-11T14:30:27.131Z,47.3
2017-07-11T14:31:27.568Z,47.5
2017-07-11T14:32:27.136Z,47.2
2017-07-11T14:33:27.461Z,47.5
2017-07-11T14:34:27.154Z,47.6
2017-07-11T14:35:27.472Z,48.18
2017-07-11T14:36:27.169Z,48.44
2017-07-11T14:37:27.165Z,47.77
2017-07-11T14:38:27.167Z,47.77
2017-07-11T14:39:27.175Z,48.25
2017-07-11T14:40:29.551Z,47.96
2017-07-11T14:41:27.187Z,48.44
2017-07-11T14:42:27.514Z,48.44
2017-07-11T14:43:27.522Z,49.61
2017-07-11T14:44:27.209Z,49.8
2017-07-11T14:45:27.537Z,49.9
2017-07-11T14:46:27.545Z,50.38
2017-07-11T14:47:27.222Z,50.67
2017-07-11T14:48:27.548Z,50.77
2017-07-11T14:49:27.562Z,50.09
2017-07-11T14:50:27.237Z,49.51
2017-07-11T14:51:27.244Z,49.9
2017-07-11T14:52:27.575Z,50.09
2017-07-11T14:53:27.574Z,50.87
2017-07-11T14:54:27.586Z,50.29
2017-07-11T14:55:27.265Z,49.97
2017-07-11T14:56:27.594Z,50.16
2017-07-11T14:57:53.441Z,50.19
2017-07-11T14:58:27.328Z,49.7
2017-07-11T14:59:27.306Z,49.7
2017-07-11T15:00:27.618Z,49.02
2017-07-11T15:01:27.706Z,48.93
2017-07-11T15:02:27.693Z,49.24
2017-07-11T15:03:27.633Z,49.44
2017-07-11T15:04:27.633Z,48.57
2017-07-11T15:05:27.321Z,48.37
2017-07-11T15:06:27.330Z,48.37
2017-07-11T15:07:27.333Z,48.18
2017-07-11T15:08:27.665Z,49.15
2017-07-11T15:09:27.358Z,49.15
2017-07-11T15:10:27.684Z,50.12
2017-07-11T15:11:27.683Z,49.54
2017-07-11T15:12:27.365Z,49.63
2017-07-11T15:13:27.691Z,50.31
2017-07-11T15:14:27.706Z,50.31
2017-07-11T15:15:27.717Z,48.47
2017-07-11T15:16:27.802Z,48.08
2017-07-11T15:17:27.808Z,47.79
2017-07-11T15:18:27.404Z,48.66
2017-07-11T15:19:27.729Z,48.88
2017-07-11T15:20:27.746Z,48.39
2017-07-11T15:21:27.743Z,48.88
2017-07-11T15:22:27.742Z,48.88
2017-07-11T15:23:27.745Z,48.78
2017-07-11T15:24:27.785Z,48.69
2017-07-11T15:25:27.760Z,49.92
2017-07-11T15:26:28.114Z,50.21
2017-07-11T15:27:27.450Z,49.44
2017-07-11T15:28:27.783Z,50.21
2017-07-11T15:29:27.470Z,49.37
2017-07-11T15:30:27.788Z,48.39
2017-07-11T15:31:27.472Z,48.59
2017-07-11T15:32:27.805Z,48.59
2017-07-11T15:33:27.485Z,48.88
2017-07-11T15:34:27.492Z,48.39
2017-07-11T15:35:27.820Z,48.22
2017-07-11T15:36:27.830Z,47.55
2017-07-11T15:37:27.830Z,48.42
2017-07-11T15:38:27.519Z,48.73
2017-07-11T15:39:27.843Z,47.06
2017-07-11T15:40:27.851Z,46.96
2017-07-11T15:41:27.534Z,46.69
2017-07-11T15:42:27.873Z,47.08
2017-07-11T15:43:27.550Z,46.96
2017-07-11T15:44:27.872Z,47.55
2017-07-11T15:45:27.881Z,47.35
2017-07-11T15:46:27.887Z,47.64
2017-07-11T15:47:27.897Z,47.16
2017-07-11T15:48:27.586Z,48.13
2017-07-11T15:49:27.909Z,48.8
2017-07-11T15:50:27.921Z,45.99
2017-07-11T15:51:27.598Z,46.94
2017-07-11T15:52:27.929Z,47.62
2017-07-11T15:53:27.621Z,47.42
2017-07-11T15:54:27.620Z,47.91
2017-07-11T15:55:27.942Z,47.23
2017-07-11T15:56:27.946Z,46.65
2017-07-11T15:57:28.069Z,46.55
2017-07-11T15:58:27.963Z,45.58
2017-07-11T15:59:27.658Z,45.87
2017-07-11T16:00:27.983Z,46.33
2017-07-11T16:01:27.666Z,46.24
2017-07-11T16:02:27.667Z,46.92
2017-07-11T16:03:27.992Z,47.23
2017-07-11T16:04:28.014Z,47.42
2017-07-11T16:05:27.692Z,47.42
2017-07-11T16:06:27.690Z,46.92
2017-07-11T16:07:28.028Z,47.11
2017-07-11T16:08:27.704Z,47.6
2017-07-11T16:09:27.708Z,48.18
2017-07-11T16:10:27.719Z,48.27
2017-07-11T16:11:27.740Z,48.47
2017-07-11T16:12:28.464Z,48.18
2017-07-11T16:13:28.053Z,46.92
2017-07-11T16:14:28.067Z,47.11
2017-07-11T16:15:28.087Z,46.43
2017-07-11T16:16:27.769Z,46.92
2017-07-11T16:17:28.081Z,47.11
2017-07-11T16:18:28.082Z,47.5
2017-07-11T16:19:28.096Z,47.89
2017-07-11T16:20:28.105Z,48.08
2017-07-11T16:21:28.105Z,47.69
2017-07-11T16:22:27.781Z,47.6
2017-07-11T16:23:27.787Z,47.11
2017-07-11T16:24:28.112Z,47.4
2017-07-11T16:25:28.132Z,47.47
2017-07-11T16:26:27.892Z,48.25
2017-07-11T16:27:28.230Z,48.95
2017-07-11T16:28:28.137Z,46.33
2017-07-11T16:29:28.140Z,46.22
2017-07-11T16:30:27.826Z,46.7
2017-07-11T16:31:27.950Z,48.64
2017-07-11T16:32:28.164Z,47.96
2017-07-11T16:33:28.162Z,46.51
2017-07-11T16:34:27.848Z,46.87
2017-07-11T16:35:28.178Z,47.55
2017-07-11T16:36:27.867Z,45.61
2017-07-11T16:37:27.865Z,45.13
2017-07-11T16:38:28.211Z,45.61
2017-07-11T16:39:28.195Z,46.09
2017-07-11T16:40:28.206Z,46.67
2017-07-11T16:41:28.217Z,46.87
2017-07-11T16:42:31.144Z,48.13
2017-07-11T16:43:28.218Z,48.22
2017-07-11T16:44:27.910Z,47.45
2017-07-11T16:45:28.228Z,46.19
2017-07-11T16:46:27.912Z,46.29
2017-07-11T16:47:28.240Z,46.39
2017-07-11T16:48:28.245Z,46.29
2017-07-11T16:49:27.931Z,46
2017-07-11T16:50:27.943Z,46.39
2017-07-11T16:51:27.948Z,45.81
2017-07-11T16:52:27.958Z,46.97
2017-07-11T16:53:27.960Z,46.48
2017-07-11T16:54:27.964Z,47.45
2017-07-11T16:55:28.301Z,45.92
2017-07-11T16:56:27.973Z,45.42
2017-07-11T16:57:28.294Z,46.29
2017-07-11T16:58:27.981Z,46.48
2017-07-11T16:59:28.327Z,46
2017-07-11T17:00:28.448Z,46.58
2017-07-11T17:01:28.075Z,47.45
2017-07-11T17:02:28.004Z,46.77
2017-07-11T17:03:28.435Z,47.57
2017-07-11T17:04:28.056Z,47.16
2017-07-11T17:05:29.224Z,46.87
2017-07-11T17:06:28.153Z,47.16
2017-07-11T17:07:28.055Z,46.87
2017-07-11T17:08:28.054Z,46.77
2017-07-11T17:09:28.409Z,46.87
2017-07-11T17:10:28.074Z,47.36
2017-07-11T17:11:28.184Z,46.87
2017-07-11T17:12:28.058Z,48.71
2017-07-11T17:13:28.379Z,48.9
2017-07-11T17:14:28.413Z,49.49
2017-07-11T17:15:28.550Z,49.49
2017-07-11T17:16:28.095Z,49.77
2017-07-11T17:17:28.086Z,49.77
2017-07-11T17:18:28.422Z,49.39
2017-07-11T17:19:28.464Z,49.58
2017-07-11T17:20:28.465Z,49.87
2017-07-11T17:21:28.116Z,50.33
2017-07-11T17:22:28.438Z,49.65
2017-07-11T17:23:28.115Z,50.62
2017-07-11T17:24:28.123Z,51.01
2017-07-11T17:25:28.449Z,51.59
2017-07-11T17:26:28.129Z,51.4
2017-07-11T17:27:28.486Z,51.68
2017-07-11T17:28:28.245Z,51.3
2017-07-11T17:29:28.499Z,50.92
2017-07-11T17:30:28.297Z,50.82
2017-07-11T17:31:28.524Z,50.72
2017-07-11T17:32:28.190Z,50.43
2017-07-11T17:33:28.501Z,50.6
2017-07-11T17:34:28.523Z,50.43
2017-07-11T17:35:28.526Z,49.95
2017-07-11T17:36:28.176Z,50.4
2017-07-11T17:37:28.189Z,50.02
2017-07-11T17:38:28.733Z,50.7
2017-07-11T17:39:28.192Z,51.66
2017-07-11T17:40:28.530Z,52.14
2017-07-11T17:41:28.534Z,52.63
2017-07-11T17:42:28.207Z,53.23
2017-07-11T17:43:29.464Z,52.63
2017-07-11T17:44:28.549Z,52.34
2017-07-11T17:45:28.565Z,51.28
2017-07-11T17:46:28.237Z,52.44
2017-07-11T17:47:28.577Z,53.79
2017-07-11T17:48:28.238Z,53.99
2017-07-11T17:49:28.241Z,54.47
2017-07-11T17:50:28.245Z,53.69
2017-07-11T17:51:28.254Z,52.63
2017-07-11T17:52:28.255Z,50.5
2017-07-11T17:53:28.309Z,50.6
2017-07-11T17:54:28.264Z,50.79
2017-07-11T17:55:28.270Z,52.05
2017-07-11T17:56:28.618Z,52.53
2017-07-11T17:57:28.615Z,50.7
2017-07-11T17:58:28.711Z,50.89
2017-07-11T17:59:28.290Z,51.66
2017-07-11T18:00:28.621Z,50.14
2017-07-11T18:01:28.637Z,49.65
2017-07-11T18:02:28.663Z,49.95
2017-07-11T18:03:28.639Z,51.47
2017-07-11T18:04:28.640Z,51.18
2017-07-11T18:05:28.657Z,50.31
2017-07-11T18:06:28.655Z,49.65
2017-07-11T18:07:28.333Z,50.43
2017-07-11T18:08:28.337Z,49.85
2017-07-11T18:09:28.677Z,49.56
2017-07-11T18:10:28.681Z,50.52
2017-07-11T18:11:28.679Z,50.04
2017-07-11T18:12:28.756Z,49.75
2017-07-11T18:13:28.362Z,49.56
2017-07-11T18:14:28.696Z,49.37
2017-07-11T18:15:28.370Z,49
2017-07-11T18:16:28.382Z,48.71
2017-07-11T18:17:28.383Z,48.61
2017-07-11T18:18:28.721Z,49.37
2017-07-11T18:19:28.767Z,49.56
2017-07-11T18:20:28.732Z,49
2017-07-11T18:21:28.740Z,49.27
2017-07-11T18:22:28.746Z,49.56
2017-07-11T18:23:28.413Z,49.65
2017-07-11T18:24:28.752Z,50.04
2017-07-11T18:25:28.755Z,50.72
2017-07-11T18:26:28.894Z,53.23
2017-07-11T18:27:28.773Z,52.27
2017-07-11T18:28:28.763Z,52.17
2017-07-11T18:29:29.330Z,52.56
2017-07-11T18:30:28.769Z,52.36
2017-07-11T18:31:28.777Z,52.53
2017-07-11T18:32:28.789Z,52.63
2017-07-11T18:33:28.477Z,52.82
2017-07-11T18:34:28.524Z,53.02
2017-07-11T18:35:28.480Z,52.92
2017-07-11T18:36:28.806Z,53.59
2017-07-11T18:37:28.488Z,54.57
2017-07-11T18:38:28.504Z,54.73
2017-07-11T18:39:28.500Z,53.77
2017-07-11T18:40:28.819Z,54.44
2017-07-11T18:41:28.529Z,55.11
2017-07-11T18:42:28.605Z,55.11
2017-07-11T18:43:28.841Z,55.51
2017-07-11T18:44:29.839Z,55.67
2017-07-11T18:45:28.901Z,56.45
2017-07-11T18:46:28.857Z,56.45
2017-07-11T18:47:28.860Z,56.83
2017-07-11T18:48:28.553Z,56.93
2017-07-11T18:49:28.557Z,58.28
2017-07-11T18:50:28.555Z,58.28
2017-07-11T18:51:28.875Z,57.99
2017-07-11T18:52:28.580Z,57.67
2017-07-11T18:53:28.881Z,58.93
2017-07-11T18:54:28.566Z,59.02
2017-07-11T18:55:28.582Z,59.31
2017-07-11T18:56:28.909Z,59.41
2017-07-11T18:57:28.903Z,59.89
2017-07-11T18:58:28.909Z,59.89
2017-07-11T18:59:28.611Z,60.67
2017-07-11T19:00:28.605Z,60.47
2017-07-11T19:01:28.612Z,60.93
2017-07-11T19:02:28.637Z,61.12
2017-07-11T19:03:28.925Z,61.22
2017-07-11T19:04:28.627Z,60.93
2017-07-11T19:05:28.933Z,61.99
2017-07-11T19:06:28.646Z,62.18
2017-07-11T19:07:28.643Z,62.47
2017-07-11T19:08:28.651Z,63.31
2017-07-11T19:09:28.952Z,63.02
2017-07-11T19:10:28.953Z,63.12
2017-07-11T19:11:28.661Z,63.5
2017-07-11T19:12:28.973Z,63.7
2017-07-11T19:13:28.667Z,64.08
2017-07-11T19:14:28.972Z,63.7
2017-07-11T19:15:28.989Z,64.08
2017-07-11T19:16:28.990Z,64.47
2017-07-11T19:17:28.993Z,64.95
2017-07-11T19:18:28.994Z,64.86
2017-07-11T19:19:29.005Z,64.92
2017-07-11T19:20:28.992Z,65.59
2017-07-11T19:21:29.023Z,64.72
2017-07-11T19:22:28.999Z,64.82
2017-07-11T19:23:28.709Z,64.34
2017-07-11T19:24:29.011Z,63.95
2017-07-11T19:25:29.018Z,65.3
2017-07-11T19:26:28.710Z,65.2
2017-07-11T19:27:29.026Z,64.92
2017-07-11T19:28:29.160Z,65.01
2017-07-11T19:29:29.029Z,64.05
2017-07-11T19:30:28.813Z,63.89
2017-07-11T19:31:29.036Z,63.67
2017-07-11T19:32:28.726Z,63.21
2017-07-11T19:33:28.741Z,62.82
2017-07-11T19:34:28.738Z,63.12
2017-07-11T19:35:28.757Z,63.31
2017-07-11T19:36:29.697Z,63.31
2017-07-11T19:37:28.775Z,63.6
2017-07-11T19:38:28.750Z,65.63
2017-07-11T19:39:29.071Z,64.34
2017-07-11T19:40:29.095Z,62.63
2017-07-11T19:41:29.077Z,63.4
2017-07-11T19:42:29.109Z,63.28
2017-07-11T19:43:28.902Z,63.47
2017-07-11T19:44:28.778Z,64.28
2017-07-11T19:45:31.534Z,63.37
2017-07-11T19:46:28.787Z,62.82
2017-07-11T19:47:29.100Z,62.89
2017-07-11T19:48:29.104Z,62.82
2017-07-11T19:49:29.110Z,62.73
2017-07-11T19:50:29.146Z,62.63
2017-07-11T19:51:28.801Z,62.34
2017-07-11T19:52:29.122Z,62.34
2017-07-11T19:53:28.809Z,61.57
2017-07-11T19:54:29.136Z,61.09
2017-07-11T19:55:29.142Z,60.89
2017-07-11T19:56:29.157Z,61.09
2017-07-11T19:57:29.152Z,61.38
2017-07-11T19:58:28.828Z,62.34
2017-07-11T19:59:29.528Z,63.12
2017-07-11T20:00:29.252Z,63.21
2017-07-11T20:01:29.156Z,63.28
2017-07-11T20:02:29.159Z,63.37
2017-07-11T20:03:29.160Z,64.24
2017-07-11T20:04:29.167Z,63.37
2017-07-11T20:05:28.849Z,63.37
2017-07-11T20:06:28.854Z,64.24
2017-07-11T20:07:29.187Z,65.2
2017-07-11T20:08:29.185Z,65.4
2017-07-11T20:09:29.186Z,65.69
2017-07-11T20:10:28.879Z,65.69
2017-07-11T20:11:29.198Z,65.69
2017-07-11T20:12:28.877Z,66.56
2017-07-11T20:13:28.885Z,67.04
2017-07-11T20:14:28.892Z,66.85
2017-07-11T20:15:33.417Z,67.49
2017-07-11T20:16:28.897Z,67.49
2017-07-11T20:17:29.217Z,67.49
2017-07-11T20:18:29.220Z,68.07
2017-07-11T20:19:29.228Z,67.88
2017-07-11T20:20:28.910Z,68.26
2017-07-11T20:21:28.912Z,68.65
2017-07-11T20:22:29.236Z,68.23
2017-07-11T20:23:28.918Z,68.61
2017-07-11T20:24:29.265Z,68.9
2017-07-11T20:25:29.254Z,69.29
2017-07-11T20:26:29.254Z,69.19
2017-07-11T20:27:29.266Z,68.9
2017-07-11T20:28:29.271Z,69.29
2017-07-11T20:29:28.945Z,69.38
2017-07-11T20:30:29.270Z,69.48
2017-07-11T20:31:29.270Z,70.15
2017-07-11T20:32:29.275Z,69.67
2017-07-11T20:33:28.958Z,69.87
2017-07-11T20:34:29.282Z,69.77
2017-07-11T20:35:29.287Z,69.67
2017-07-11T20:36:29.291Z,70.06
2017-07-11T20:37:29.312Z,69.96
2017-07-11T20:38:28.982Z,69.87
2017-07-11T20:39:29.300Z,69.77
2017-07-11T20:40:29.299Z,69.96
2017-07-11T20:41:28.989Z,69.96
2017-07-11T20:42:28.997Z,69.83
2017-07-11T20:43:29.318Z,69.38
2017-07-11T20:44:29.328Z,69.57
2017-07-11T20:45:29.002Z,69.83
2017-07-11T20:46:32.257Z,69.64
2017-07-11T20:47:29.328Z,70.12
2017-07-11T20:48:29.330Z,70.31
2017-07-11T20:49:29.336Z,70.31
2017-07-11T20:50:29.336Z,70.41
2017-07-11T20:51:29.347Z,70.31
